sensor_id;sensor_type;location;lat;lon;timestamp;pressure;altitude;pressure_sealevel;temperature;humidity
75063;BME280;63981;51.052;13.754;2023-06-19T00:01:19;100204.91;;;16.90;71.29
75063;BME280;63981;51.052;13.754;2023-06-19T00:03:46;100207.56;;;16.90;71.16
75063;BME280;63981;51.052;13.754;2023-06-19T00:06:11;100203.38;;;16.88;71.33
75063;BME280;63981;51.052;13.754;2023-06-19T00:08:40;100199.63;;;16.80;71.65
75063;BME280;63981;51.052;13.754;2023-06-19T00:11:07;100196.50;;;16.66;71.80
75063;BME280;63981;51.052;13.754;2023-06-19T00:13:32;100199.44;;;16.63;71.86
75063;BME280;63981;51.052;13.754;2023-06-19T00:16:00;100196.94;;;16.61;72.47
75063;BME280;63981;51.052;13.754;2023-06-19T00:18:27;100192.88;;;16.57;72.07
75063;BME280;63981;51.052;13.754;2023-06-19T00:20:53;100197.22;;;16.48;72.52
75063;BME280;63981;51.052;13.754;2023-06-19T00:23:22;100179.44;;;16.30;72.67
75063;BME280;63981;51.052;13.754;2023-06-19T00:25:48;100191.19;;;16.37;73.28
75063;BME280;63981;51.052;13.754;2023-06-19T00:28:14;100190.63;;;16.52;73.02
75063;BME280;63981;51.052;13.754;2023-06-19T00:30:41;100193.16;;;16.54;73.31
75063;BME280;63981;51.052;13.754;2023-06-19T00:33:07;100196.09;;;16.61;72.65
75063;BME280;63981;51.052;13.754;2023-06-19T00:35:33;100194.41;;;16.60;72.85
75063;BME280;63981;51.052;13.754;2023-06-19T00:37:59;100191.75;;;16.60;73.16
75063;BME280;63981;51.052;13.754;2023-06-19T00:40:32;100185.78;;;16.67;72.68
75063;BME280;63981;51.052;13.754;2023-06-19T00:42:58;100191.09;;;16.67;72.80
75063;BME280;63981;51.052;13.754;2023-06-19T00:45:25;100196.41;;;16.67;72.84
75063;BME280;63981;51.052;13.754;2023-06-19T00:47:54;100195.81;;;16.64;72.85
75063;BME280;63981;51.052;13.754;2023-06-19T00:50:21;100190.22;;;16.67;72.97
75063;BME280;63981;51.052;13.754;2023-06-19T00:52:47;100197.34;;;16.66;72.23
75063;BME280;63981;51.052;13.754;2023-06-19T00:55:15;100196.94;;;16.61;73.08
75063;BME280;63981;51.052;13.754;2023-06-19T00:57:41;100190.34;;;16.56;73.27
75063;BME280;63981;51.052;13.754;2023-06-19T01:00:08;100187.13;;;16.52;73.34
75063;BME280;63981;51.052;13.754;2023-06-19T01:02:36;100181.97;;;16.41;73.17
75063;BME280;63981;51.052;13.754;2023-06-19T01:05:02;100178.44;;;16.31;74.15
75063;BME280;63981;51.052;13.754;2023-06-19T01:07:43;100184.03;;;16.18;73.95
75063;BME280;63981;51.052;13.754;2023-06-19T01:10:17;100172.69;;;16.26;74.02
75063;BME280;63981;51.052;13.754;2023-06-19T01:12:49;100180.13;;;16.32;74.19
75063;BME280;63981;51.052;13.754;2023-06-19T01:15:18;100184.88;;;16.38;73.69
75063;BME280;63981;51.052;13.754;2023-06-19T01:17:45;100180.69;;;16.35;74.17
75063;BME280;63981;51.052;13.754;2023-06-19T01:20:14;100174.25;;;16.28;73.80
75063;BME280;63981;51.052;13.754;2023-06-19T01:22:40;100184.06;;;16.28;74.20
75063;BME280;63981;51.052;13.754;2023-06-19T01:25:10;100177.88;;;16.17;74.43
75063;BME280;63981;51.052;13.754;2023-06-19T01:27:40;100136.28;;;15.97;74.48
75063;BME280;63981;51.052;13.754;2023-06-19T01:30:07;100162.59;;;16.10;74.63
75063;BME280;63981;51.052;13.754;2023-06-19T01:32:47;100166.94;;;16.11;74.86
75063;BME280;63981;51.052;13.754;2023-06-19T01:35:19;100170.03;;;16.06;75.08
75063;BME280;63981;51.052;13.754;2023-06-19T01:37:46;100169.56;;;16.01;75.64
75063;BME280;63981;51.052;13.754;2023-06-19T01:40:14;100166.91;;;16.01;75.27
75063;BME280;63981;51.052;13.754;2023-06-19T01:42:41;100161.59;;;16.01;75.70
75063;BME280;63981;51.052;13.754;2023-06-19T01:45:08;100168.03;;;15.99;75.47
75063;BME280;63981;51.052;13.754;2023-06-19T01:47:35;100133.03;;;15.84;75.48
75063;BME280;63981;51.052;13.754;2023-06-19T01:50:02;100159.66;;;16.03;75.74
75063;BME280;63981;51.052;13.754;2023-06-19T01:52:29;100156.56;;;15.98;75.21
75063;BME280;63981;51.052;13.754;2023-06-19T01:54:54;100155.19;;;15.94;75.50
75063;BME280;63981;51.052;13.754;2023-06-19T01:57:21;100160.63;;;15.92;75.69
75063;BME280;63981;51.052;13.754;2023-06-19T01:59:46;100159.34;;;15.87;75.85
75063;BME280;63981;51.052;13.754;2023-06-19T02:02:12;100150.66;;;15.85;75.83
75063;BME280;63981;51.052;13.754;2023-06-19T02:04:38;100146.47;;;15.82;76.52
75063;BME280;63981;51.052;13.754;2023-06-19T02:07:04;100155.00;;;15.76;76.82
75063;BME280;63981;51.052;13.754;2023-06-19T02:09:30;100145.47;;;15.74;76.91
75063;BME280;63981;51.052;13.754;2023-06-19T02:11:56;100145.03;;;15.69;76.59
75063;BME280;63981;51.052;13.754;2023-06-19T02:14:21;100144.56;;;15.54;77.25
75063;BME280;63981;51.052;13.754;2023-06-19T02:16:47;100146.47;;;15.42;77.02
75063;BME280;63981;51.052;13.754;2023-06-19T02:19:13;100144.09;;;15.39;77.95
75063;BME280;63981;51.052;13.754;2023-06-19T02:21:39;100139.44;;;15.31;77.60
75063;BME280;63981;51.052;13.754;2023-06-19T02:24:05;100151.97;;;15.20;78.08
75063;BME280;63981;51.052;13.754;2023-06-19T02:26:31;100069.31;;;14.73;78.39
75063;BME280;63981;51.052;13.754;2023-06-19T02:28:57;100143.72;;;15.23;78.43
75063;BME280;63981;51.052;13.754;2023-06-19T02:31:23;100151.47;;;15.35;78.27
75063;BME280;63981;51.052;13.754;2023-06-19T02:33:50;100148.78;;;15.26;78.23
75063;BME280;63981;51.052;13.754;2023-06-19T02:36:18;100150.00;;;15.22;78.56
75063;BME280;63981;51.052;13.754;2023-06-19T02:38:49;100141.81;;;15.25;79.39
75063;BME280;63981;51.052;13.754;2023-06-19T02:41:15;100138.19;;;15.35;78.37
75063;BME280;63981;51.052;13.754;2023-06-19T02:43:42;100139.75;;;15.38;78.74
75063;BME280;63981;51.052;13.754;2023-06-19T02:46:09;100123.22;;;15.25;78.53
75063;BME280;63981;51.052;13.754;2023-06-19T02:48:35;100136.13;;;15.39;78.39
75063;BME280;63981;51.052;13.754;2023-06-19T02:51:00;100129.84;;;15.40;78.60
75063;BME280;63981;51.052;13.754;2023-06-19T02:53:26;100138.22;;;15.45;77.92
75063;BME280;63981;51.052;13.754;2023-06-19T02:55:52;100134.22;;;15.51;78.52
75063;BME280;63981;51.052;13.754;2023-06-19T02:58:18;100132.25;;;15.53;78.34
75063;BME280;63981;51.052;13.754;2023-06-19T03:00:44;100133.47;;;15.49;77.77
75063;BME280;63981;51.052;13.754;2023-06-19T03:03:10;100135.91;;;15.61;77.52
75063;BME280;63981;51.052;13.754;2023-06-19T03:05:38;100084.41;;;15.43;77.15
75063;BME280;63981;51.052;13.754;2023-06-19T03:08:04;100126.63;;;15.77;76.92
75063;BME280;63981;51.052;13.754;2023-06-19T03:10:30;100124.94;;;15.76;77.06
75063;BME280;63981;51.052;13.754;2023-06-19T03:12:56;100113.31;;;15.77;76.51
75063;BME280;63981;51.052;13.754;2023-06-19T03:15:24;100127.03;;;15.82;76.48
75063;BME280;63981;51.052;13.754;2023-06-19T03:17:53;100125.22;;;15.82;76.09
75063;BME280;63981;51.052;13.754;2023-06-19T03:20:20;100119.06;;;15.91;76.72
75063;BME280;63981;51.052;13.754;2023-06-19T03:22:53;100126.91;;;15.93;76.53
75063;BME280;63981;51.052;13.754;2023-06-19T03:25:19;100120.19;;;15.99;76.03
75063;BME280;63981;51.052;13.754;2023-06-19T03:27:46;100126.63;;;15.96;75.36
75063;BME280;63981;51.052;13.754;2023-06-19T03:30:13;100119.63;;;15.95;75.41
75063;BME280;63981;51.052;13.754;2023-06-19T03:32:40;100131.41;;;16.02;75.49
75063;BME280;63981;51.052;13.754;2023-06-19T03:35:09;100122.44;;;16.03;75.12
75063;BME280;63981;51.052;13.754;2023-06-19T03:37:41;100112.66;;;16.04;75.34
75063;BME280;63981;51.052;13.754;2023-06-19T03:40:07;100123.41;;;16.12;74.93
75063;BME280;63981;51.052;13.754;2023-06-19T03:42:40;100108.28;;;16.12;74.90
75063;BME280;63981;51.052;13.754;2023-06-19T03:45:06;100114.06;;;16.17;74.45
75063;BME280;63981;51.052;13.754;2023-06-19T03:47:32;100113.47;;;16.23;74.84
75063;BME280;63981;51.052;13.754;2023-06-19T03:49:58;100117.97;;;16.33;74.53
75063;BME280;63981;51.052;13.754;2023-06-19T03:52:24;100115.44;;;16.31;74.41
75063;BME280;63981;51.052;13.754;2023-06-19T03:54:49;100115.84;;;16.36;74.21
75063;BME280;63981;51.052;13.754;2023-06-19T03:57:15;100116.56;;;16.29;73.94
75063;BME280;63981;51.052;13.754;2023-06-19T03:59:41;100125.94;;;16.23;74.44
75063;BME280;63981;51.052;13.754;2023-06-19T04:02:09;100116.84;;;16.16;74.15
75063;BME280;63981;51.052;13.754;2023-06-19T04:04:35;100122.88;;;16.18;74.27
75063;BME280;63981;51.052;13.754;2023-06-19T04:07:01;100129.44;;;16.23;74.54
75063;BME280;63981;51.052;13.754;2023-06-19T04:09:27;100127.19;;;16.38;74.32
75063;BME280;63981;51.052;13.754;2023-06-19T04:11:53;100121.56;;;16.61;74.56
75063;BME280;63981;51.052;13.754;2023-06-19T04:14:19;100118.47;;;16.85;74.03
75063;BME280;63981;51.052;13.754;2023-06-19T04:16:45;100111.63;;;17.19;72.93
75063;BME280;63981;51.052;13.754;2023-06-19T04:19:10;100116.81;;;17.21;71.96
75063;BME280;63981;51.052;13.754;2023-06-19T04:21:36;100109.25;;;17.44;71.19
75063;BME280;63981;51.052;13.754;2023-06-19T04:24:04;100116.00;;;17.65;70.09
75063;BME280;63981;51.052;13.754;2023-06-19T04:26:31;100121.31;;;17.75;70.02
75063;BME280;63981;51.052;13.754;2023-06-19T04:28:57;100106.47;;;17.90;69.64
75063;BME280;63981;51.052;13.754;2023-06-19T04:31:23;100133.03;;;18.27;69.29
75063;BME280;63981;51.052;13.754;2023-06-19T04:33:49;100072.78;;;18.07;67.38
75063;BME280;63981;51.052;13.754;2023-06-19T04:36:14;100138.84;;;17.78;67.72
75063;BME280;63981;51.052;13.754;2023-06-19T04:38:40;100134.84;;;17.64;68.29
75063;BME280;63981;51.052;13.754;2023-06-19T04:41:24;100119.28;;;18.05;67.26
75063;BME280;63981;51.052;13.754;2023-06-19T04:43:50;100131.09;;;18.02;67.00
75063;BME280;63981;51.052;13.754;2023-06-19T04:46:16;100107.56;;;18.15;67.17
75063;BME280;63981;51.052;13.754;2023-06-19T04:48:46;100133.69;;;18.30;67.06
75063;BME280;63981;51.052;13.754;2023-06-19T04:51:17;100126.44;;;18.40;66.27
75063;BME280;63981;51.052;13.754;2023-06-19T04:53:47;100124.03;;;18.90;65.55
75063;BME280;63981;51.052;13.754;2023-06-19T04:56:14;100113.91;;;19.02;64.81
75063;BME280;63981;51.052;13.754;2023-06-19T04:58:40;100124.22;;;18.35;65.97
75063;BME280;63981;51.052;13.754;2023-06-19T05:01:12;100124.88;;;18.73;66.13
75063;BME280;63981;51.052;13.754;2023-06-19T05:03:39;100132.72;;;18.92;65.36
75063;BME280;63981;51.052;13.754;2023-06-19T05:06:05;100132.97;;;19.07;64.60
75063;BME280;63981;51.052;13.754;2023-06-19T05:08:31;100124.19;;;18.89;64.63
75063;BME280;63981;51.052;13.754;2023-06-19T05:10:56;100134.16;;;19.12;64.72
75063;BME280;63981;51.052;13.754;2023-06-19T05:13:24;100134.59;;;19.34;64.08
75063;BME280;63981;51.052;13.754;2023-06-19T05:15:51;100057.84;;;18.76;63.24
75063;BME280;63981;51.052;13.754;2023-06-19T05:18:17;100141.97;;;19.06;63.88
75063;BME280;63981;51.052;13.754;2023-06-19T05:20:43;100111.03;;;18.95;63.56
75063;BME280;63981;51.052;13.754;2023-06-19T05:23:09;100133.88;;;18.90;64.52
75063;BME280;63981;51.052;13.754;2023-06-19T05:25:35;100133.16;;;19.13;64.30
75063;BME280;63981;51.052;13.754;2023-06-19T05:28:02;100135.78;;;19.31;63.01
75063;BME280;63981;51.052;13.754;2023-06-19T05:30:27;100143.59;;;18.99;63.95
75063;BME280;63981;51.052;13.754;2023-06-19T05:32:53;100112.59;;;19.06;63.41
75063;BME280;63981;51.052;13.754;2023-06-19T05:35:19;100139.56;;;19.21;63.24
75063;BME280;63981;51.052;13.754;2023-06-19T05:37:45;100135.78;;;19.31;63.15
75063;BME280;63981;51.052;13.754;2023-06-19T05:40:11;100136.78;;;19.38;63.09
75063;BME280;63981;51.052;13.754;2023-06-19T05:42:37;100136.56;;;19.24;63.50
75063;BME280;63981;51.052;13.754;2023-06-19T05:45:03;100139.78;;;19.27;63.59
75063;BME280;63981;51.052;13.754;2023-06-19T05:47:29;100137.63;;;19.39;62.65
75063;BME280;63981;51.052;13.754;2023-06-19T05:49:56;100139.09;;;19.59;62.66
75063;BME280;63981;51.052;13.754;2023-06-19T05:52:22;100139.25;;;19.66;62.27
75063;BME280;63981;51.052;13.754;2023-06-19T05:54:49;100111.22;;;19.36;63.10
75063;BME280;63981;51.052;13.754;2023-06-19T05:57:14;100142.75;;;19.58;62.04
75063;BME280;63981;51.052;13.754;2023-06-19T05:59:50;100140.97;;;19.75;62.06
75063;BME280;63981;51.052;13.754;2023-06-19T06:02:17;100137.28;;;19.76;62.30
75063;BME280;63981;51.052;13.754;2023-06-19T06:04:44;100136.31;;;19.85;61.86
75063;BME280;63981;51.052;13.754;2023-06-19T06:07:10;100140.84;;;19.85;62.09
75063;BME280;63981;51.052;13.754;2023-06-19T06:09:35;100138.00;;;19.86;61.63
75063;BME280;63981;51.052;13.754;2023-06-19T06:12:01;100145.31;;;19.76;61.94
75063;BME280;63981;51.052;13.754;2023-06-19T06:14:27;100142.69;;;19.84;61.91
75063;BME280;63981;51.052;13.754;2023-06-19T06:16:53;100142.03;;;19.98;61.83
75063;BME280;63981;51.052;13.754;2023-06-19T06:19:21;100145.16;;;19.78;62.05
75063;BME280;63981;51.052;13.754;2023-06-19T06:21:50;100144.88;;;20.05;61.19
75063;BME280;63981;51.052;13.754;2023-06-19T06:24:16;100150.09;;;20.07;60.82
75063;BME280;63981;51.052;13.754;2023-06-19T06:26:42;100134.03;;;20.15;60.78
75063;BME280;63981;51.052;13.754;2023-06-19T06:29:08;100152.44;;;20.18;60.36
75063;BME280;63981;51.052;13.754;2023-06-19T06:31:34;100158.00;;;20.32;60.28
75063;BME280;63981;51.052;13.754;2023-06-19T06:34:00;100155.50;;;20.55;59.22
75063;BME280;63981;51.052;13.754;2023-06-19T06:36:26;100157.69;;;20.52;59.32
75063;BME280;63981;51.052;13.754;2023-06-19T06:38:52;100159.88;;;20.48;59.47
75063;BME280;63981;51.052;13.754;2023-06-19T06:41:17;100160.66;;;20.41;59.42
75063;BME280;63981;51.052;13.754;2023-06-19T06:43:43;100166.19;;;20.23;60.06
75063;BME280;63981;51.052;13.754;2023-06-19T06:46:09;100111.28;;;19.94;59.90
75063;BME280;63981;51.052;13.754;2023-06-19T06:48:38;100170.19;;;20.27;60.00
75063;BME280;63981;51.052;13.754;2023-06-19T06:51:05;100128.22;;;20.19;59.50
75063;BME280;63981;51.052;13.754;2023-06-19T06:53:31;100168.09;;;20.47;59.66
75063;BME280;63981;51.052;13.754;2023-06-19T06:55:59;100156.19;;;20.49;58.92
75063;BME280;63981;51.052;13.754;2023-06-19T06:58:26;100164.91;;;20.51;58.87
75063;BME280;63981;51.052;13.754;2023-06-19T07:00:52;100136.63;;;20.49;58.69
75063;BME280;63981;51.052;13.754;2023-06-19T07:03:18;100162.38;;;20.66;58.26
75063;BME280;63981;51.052;13.754;2023-06-19T07:05:44;100166.19;;;20.96;57.88
75063;BME280;63981;51.052;13.754;2023-06-19T07:08:10;100134.25;;;20.86;57.67
75063;BME280;63981;51.052;13.754;2023-06-19T07:10:36;100165.66;;;21.09;57.83
75063;BME280;63981;51.052;13.754;2023-06-19T07:13:02;100153.78;;;21.28;56.56
75063;BME280;63981;51.052;13.754;2023-06-19T07:15:28;100146.91;;;21.25;56.85
75063;BME280;63981;51.052;13.754;2023-06-19T07:17:54;100170.56;;;21.61;56.44
75063;BME280;63981;51.052;13.754;2023-06-19T07:20:19;100156.44;;;21.75;54.77
75063;BME280;63981;51.052;13.754;2023-06-19T07:22:45;100165.75;;;21.87;54.92
75063;BME280;63981;51.052;13.754;2023-06-19T07:25:12;100171.84;;;21.73;54.32
75063;BME280;63981;51.052;13.754;2023-06-19T07:27:39;100177.41;;;22.11;54.26
75063;BME280;63981;51.052;13.754;2023-06-19T07:30:06;100170.47;;;22.39;53.01
75063;BME280;63981;51.052;13.754;2023-06-19T07:32:32;100174.00;;;22.62;52.31
75063;BME280;63981;51.052;13.754;2023-06-19T07:34:58;100137.22;;;23.01;51.29
75063;BME280;63981;51.052;13.754;2023-06-19T07:37:24;100177.31;;;22.27;52.54
75063;BME280;63981;51.052;13.754;2023-06-19T07:39:51;100164.69;;;22.50;52.55
75063;BME280;63981;51.052;13.754;2023-06-19T07:42:18;100165.44;;;23.64;50.68
75063;BME280;63981;51.052;13.754;2023-06-19T07:44:44;100175.53;;;23.17;50.32
75063;BME280;63981;51.052;13.754;2023-06-19T07:47:12;100165.91;;;23.23;50.53
75063;BME280;63981;51.052;13.754;2023-06-19T07:49:39;100169.59;;;23.51;49.64
75063;BME280;63981;51.052;13.754;2023-06-19T07:52:05;100177.56;;;23.01;51.30
75063;BME280;63981;51.052;13.754;2023-06-19T07:54:34;100151.44;;;23.24;50.06
75063;BME280;63981;51.052;13.754;2023-06-19T07:56:59;100177.75;;;22.99;50.90
75063;BME280;63981;51.052;13.754;2023-06-19T07:59:25;100183.50;;;22.96;51.39
75063;BME280;63981;51.052;13.754;2023-06-19T08:01:52;100180.94;;;23.32;50.49
75063;BME280;63981;51.052;13.754;2023-06-19T08:04:17;100163.66;;;22.97;50.93
75063;BME280;63981;51.052;13.754;2023-06-19T08:06:43;100176.00;;;23.21;50.64
75063;BME280;63981;51.052;13.754;2023-06-19T08:09:09;100177.31;;;23.69;49.80
75063;BME280;63981;51.052;13.754;2023-06-19T08:11:35;100178.38;;;24.04;48.89
75063;BME280;63981;51.052;13.754;2023-06-19T08:14:02;100184.66;;;23.75;49.22
75063;BME280;63981;51.052;13.754;2023-06-19T08:16:28;100180.66;;;24.22;49.32
75063;BME280;63981;51.052;13.754;2023-06-19T08:18:54;100172.78;;;24.63;40.75
75063;BME280;63981;51.052;13.754;2023-06-19T08:21:20;100182.66;;;24.56;47.58
75063;BME280;63981;51.052;13.754;2023-06-19T08:23:47;100185.56;;;23.53;49.21
75063;BME280;63981;51.052;13.754;2023-06-19T08:26:13;100180.50;;;23.73;49.44
75063;BME280;63981;51.052;13.754;2023-06-19T08:28:39;100189.91;;;23.98;49.08
75063;BME280;63981;51.052;13.754;2023-06-19T08:31:06;100168.41;;;23.69;49.05
75063;BME280;63981;51.052;13.754;2023-06-19T08:33:34;100191.13;;;23.37;49.86
75063;BME280;63981;51.052;13.754;2023-06-19T08:36:01;100195.38;;;22.79;51.42
75063;BME280;63981;51.052;13.754;2023-06-19T08:38:26;100195.91;;;22.74;51.59
75063;BME280;63981;51.052;13.754;2023-06-19T08:40:53;100180.41;;;22.61;52.38
75063;BME280;63981;51.052;13.754;2023-06-19T08:43:21;100187.47;;;23.00;51.24
75063;BME280;63981;51.052;13.754;2023-06-19T08:46:16;100188.59;;;22.68;51.94
75063;BME280;63981;51.052;13.754;2023-06-19T08:48:49;100192.28;;;22.90;51.92
75063;BME280;63981;51.052;13.754;2023-06-19T08:51:14;100189.97;;;23.02;53.09
75063;BME280;63981;51.052;13.754;2023-06-19T08:53:55;100145.56;;;22.53;53.06
75063;BME280;63981;51.052;13.754;2023-06-19T08:56:21;100203.53;;;23.08;52.94
75063;BME280;63981;51.052;13.754;2023-06-19T08:58:47;100197.22;;;23.01;52.42
75063;BME280;63981;51.052;13.754;2023-06-19T09:01:17;100197.81;;;23.26;51.97
75063;BME280;63981;51.052;13.754;2023-06-19T09:03:43;100199.72;;;23.17;51.50
75063;BME280;63981;51.052;13.754;2023-06-19T09:06:15;100199.88;;;23.83;51.37
75063;BME280;63981;51.052;13.754;2023-06-19T09:08:41;100199.38;;;24.09;51.08
75063;BME280;63981;51.052;13.754;2023-06-19T09:11:07;100200.84;;;24.11;50.12
75063;BME280;63981;51.052;13.754;2023-06-19T09:13:33;100196.53;;;23.66;51.02
75063;BME280;63981;51.052;13.754;2023-06-19T09:16:03;100196.41;;;23.89;51.37
75063;BME280;63981;51.052;13.754;2023-06-19T09:18:30;100203.56;;;23.82;51.69
75063;BME280;63981;51.052;13.754;2023-06-19T09:20:57;100196.25;;;23.32;52.28
75063;BME280;63981;51.052;13.754;2023-06-19T09:23:24;100157.38;;;23.19;52.22
75063;BME280;63981;51.052;13.754;2023-06-19T09:25:54;100196.47;;;23.60;52.69
75063;BME280;63981;51.052;13.754;2023-06-19T09:28:25;100200.34;;;22.90;53.30
75063;BME280;63981;51.052;13.754;2023-06-19T09:30:55;100135.84;;;22.67;53.17
75063;BME280;63981;51.052;13.754;2023-06-19T09:33:24;100189.50;;;22.83;54.22
75063;BME280;63981;51.052;13.754;2023-06-19T09:35:50;100196.22;;;22.79;54.26
75063;BME280;63981;51.052;13.754;2023-06-19T09:38:17;100198.19;;;22.62;55.26
75063;BME280;63981;51.052;13.754;2023-06-19T09:40:47;100193.00;;;22.84;54.19
75063;BME280;63981;51.052;13.754;2023-06-19T09:43:22;100198.72;;;22.81;54.33
75063;BME280;63981;51.052;13.754;2023-06-19T09:45:49;100202.34;;;22.65;54.97
75063;BME280;63981;51.052;13.754;2023-06-19T09:48:27;100182.16;;;22.54;55.13
75063;BME280;63981;51.052;13.754;2023-06-19T09:50:59;100189.25;;;22.70;54.49
75063;BME280;63981;51.052;13.754;2023-06-19T09:53:26;100194.47;;;22.63;55.28
75063;BME280;63981;51.052;13.754;2023-06-19T09:55:53;100190.09;;;23.23;55.11
75063;BME280;63981;51.052;13.754;2023-06-19T09:58:20;100188.00;;;23.63;54.03
75063;BME280;63981;51.052;13.754;2023-06-19T10:00:47;100147.53;;;23.41;53.13
75063;BME280;63981;51.052;13.754;2023-06-19T10:03:15;100196.50;;;23.37;53.42
75063;BME280;63981;51.052;13.754;2023-06-19T10:05:42;100193.78;;;22.92;54.38
75063;BME280;63981;51.052;13.754;2023-06-19T10:08:08;100186.00;;;22.98;53.48
75063;BME280;63981;51.052;13.754;2023-06-19T10:10:35;100123.94;;;23.43;52.00
75063;BME280;63981;51.052;13.754;2023-06-19T10:13:15;100196.72;;;23.35;52.95
75063;BME280;63981;51.052;13.754;2023-06-19T10:15:42;100190.47;;;23.20;53.07
75063;BME280;63981;51.052;13.754;2023-06-19T10:18:12;100191.47;;;23.04;53.48
75063;BME280;63981;51.052;13.754;2023-06-19T10:20:39;100183.50;;;23.55;52.35
75063;BME280;63981;51.052;13.754;2023-06-19T10:23:19;100182.22;;;23.36;53.42
75063;BME280;63981;51.052;13.754;2023-06-19T10:25:48;100179.66;;;24.66;51.11
75063;BME280;63981;51.052;13.754;2023-06-19T10:30:43;100187.84;;;24.00;51.81
75063;BME280;63981;51.052;13.754;2023-06-19T10:33:09;100153.09;;;23.40;52.89
75063;BME280;63981;51.052;13.754;2023-06-19T10:35:39;100151.97;;;24.79;49.92
75063;BME280;63981;51.052;13.754;2023-06-19T10:38:06;100180.63;;;24.37;51.24
75063;BME280;63981;51.052;13.754;2023-06-19T10:40:33;100175.19;;;25.29;49.54
75063;BME280;63981;51.052;13.754;2023-06-19T10:42:58;100169.81;;;25.36;49.39
75063;BME280;63981;51.052;13.754;2023-06-19T10:45:24;100154.88;;;26.62;44.82
75063;BME280;63981;51.052;13.754;2023-06-19T10:47:54;100152.75;;;28.33;41.09
75063;BME280;63981;51.052;13.754;2023-06-19T10:50:20;100146.28;;;27.96;42.47
75063;BME280;63981;51.052;13.754;2023-06-19T10:52:47;100151.16;;;27.02;44.60
75063;BME280;63981;51.052;13.754;2023-06-19T10:55:14;100145.09;;;26.87;44.95
75063;BME280;63981;51.052;13.754;2023-06-19T10:57:44;100097.84;;;26.10;45.74
75063;BME280;63981;51.052;13.754;2023-06-19T11:00:11;100143.16;;;25.26;46.50
75063;BME280;63981;51.052;13.754;2023-06-19T11:02:40;100158.63;;;26.54;43.84
75063;BME280;63981;51.052;13.754;2023-06-19T11:05:12;100141.88;;;29.32;38.45
75063;BME280;63981;51.052;13.754;2023-06-19T11:07:38;100146.44;;;33.17;31.51
75063;BME280;63981;51.052;13.754;2023-06-19T11:10:04;100143.03;;;33.26;30.39
75063;BME280;63981;51.052;13.754;2023-06-19T11:12:31;100138.28;;;36.71;28.14
75063;BME280;63981;51.052;13.754;2023-06-19T11:14:58;100135.88;;;30.92;33.83
75063;BME280;63981;51.052;13.754;2023-06-19T11:17:24;100144.31;;;30.37;35.57
75063;BME280;63981;51.052;13.754;2023-06-19T11:19:50;100087.28;;;32.33;30.91
75063;BME280;63981;51.052;13.754;2023-06-19T11:22:16;100141.31;;;31.04;34.00
75063;BME280;63981;51.052;13.754;2023-06-19T11:24:43;100146.97;;;30.14;35.93
75063;BME280;63981;51.052;13.754;2023-06-19T11:27:16;100136.28;;;38.42;24.47
75063;BME280;63981;51.052;13.754;2023-06-19T11:29:43;100116.56;;;38.87;23.32
75063;BME280;63981;51.052;13.754;2023-06-19T11:32:13;100131.84;;;35.74;26.47
75063;BME280;63981;51.052;13.754;2023-06-19T11:34:39;100129.50;;;31.62;30.65
75063;BME280;63981;51.052;13.754;2023-06-19T11:37:16;100135.53;;;30.89;33.64
75063;BME280;63981;51.052;13.754;2023-06-19T11:39:49;100124.59;;;34.95;28.07
75063;BME280;63981;51.052;13.754;2023-06-19T11:42:17;100121.09;;;35.57;25.59
75063;BME280;63981;51.052;13.754;2023-06-19T11:44:56;100111.25;;;35.14;26.24
75063;BME280;63981;51.052;13.754;2023-06-19T11:47:23;100105.75;;;34.08;26.82
75063;BME280;63981;51.052;13.754;2023-06-19T11:49:51;100094.91;;;36.68;24.19
75063;BME280;63981;51.052;13.754;2023-06-19T11:52:17;100096.41;;;38.68;22.27
75063;BME280;63981;51.052;13.754;2023-06-19T11:54:46;100077.56;;;42.37;18.84
75063;BME280;63981;51.052;13.754;2023-06-19T11:58:14;99997.34;;;40.87;19.15
75063;BME280;63981;51.052;13.754;2023-06-19T12:00:54;99995.06;;;32.35;27.05
75063;BME280;63981;51.052;13.754;2023-06-19T12:03:25;99937.53;;;32.03;28.23
75063;BME280;63981;51.052;13.754;2023-06-19T12:06:03;99926.00;;;28.57;33.54
75063;BME280;63981;51.052;13.754;2023-06-19T12:08:34;100107.81;;;32.24;30.40
75063;BME280;63981;51.052;13.754;2023-06-19T12:11:19;100081.50;;;38.69;21.45
75063;BME280;63981;51.052;13.754;2023-06-19T12:13:51;100079.81;;;37.56;21.62
75063;BME280;63981;51.052;13.754;2023-06-19T12:16:19;100087.03;;;35.48;24.14
75063;BME280;63981;51.052;13.754;2023-06-19T12:18:47;100059.28;;;37.38;21.86
75063;BME280;63981;51.052;13.754;2023-06-19T12:21:29;99974.66;;;35.94;23.32
75063;BME280;63981;51.052;13.754;2023-06-19T12:24:08;100039.97;;;32.44;27.48
75063;BME280;63981;51.052;13.754;2023-06-19T12:26:47;99898.44;;;32.53;26.70
75063;BME280;63981;51.052;13.754;2023-06-19T12:29:20;99973.00;;;34.79;24.63
75063;BME280;63981;51.052;13.754;2023-06-19T12:34:42;100009.53;;;34.95;23.53
75063;BME280;63981;51.052;13.754;2023-06-19T12:37:18;100074.66;;;33.21;27.29
75063;BME280;63981;51.052;13.754;2023-06-19T12:39:44;100075.38;;;32.56;26.72
75063;BME280;63981;51.052;13.754;2023-06-19T12:42:10;100078.47;;;30.82;27.45
75063;BME280;63981;51.052;13.754;2023-06-19T12:44:40;100086.97;;;30.86;27.40
75063;BME280;63981;51.052;13.754;2023-06-19T12:47:09;100087.22;;;30.96;27.74
75063;BME280;63981;51.052;13.754;2023-06-19T12:49:35;100084.88;;;30.88;27.65